sensor_id;sensor_type;location;lat;lon;timestamp;temperature;humidity
30865;DHT22;17574;49.418;11.038;2022-12-18T00:01:32;-7.90;35.50
30865;DHT22;17574;49.418;11.038;2022-12-18T00:04:00;-7.90;36.60
30865;DHT22;17574;49.418;11.038;2022-12-18T00:06:28;-7.90;37.00
30865;DHT22;17574;49.418;11.038;2022-12-18T00:08:56;-8.10;35.30
30865;DHT22;17574;49.418;11.038;2022-12-18T00:11:23;-8.00;34.20
30865;DHT22;17574;49.418;11.038;2022-12-18T00:13:50;-8.00;34.20
30865;DHT22;17574;49.418;11.038;2022-12-18T00:16:18;-8.00;34.20
30865;DHT22;17574;49.418;11.038;2022-12-18T00:18:49;-8.00;34.20
30865;DHT22;17574;49.418;11.038;2022-12-18T00:21:16;-8.10;34.40
30865;DHT22;17574;49.418;11.038;2022-12-18T00:23:45;-8.00;34.20
30865;DHT22;17574;49.418;11.038;2022-12-18T00:26:13;-8.00;34.20
30865;DHT22;17574;49.418;11.038;2022-12-18T00:28:41;-7.60;34.50
30865;DHT22;17574;49.418;11.038;2022-12-18T00:31:09;-8.10;36.90
30865;DHT22;17574;49.418;11.038;2022-12-18T00:33:36;-8.10;38.90
30865;DHT22;17574;49.418;11.038;2022-12-18T00:38:30;-8.00;37.90
30865;DHT22;17574;49.418;11.038;2022-12-18T00:40:57;-8.00;38.50
30865;DHT22;17574;49.418;11.038;2022-12-18T00:43:23;-8.00;39.50
30865;DHT22;17574;49.418;11.038;2022-12-18T00:45:50;-8.00;38.70
30865;DHT22;17574;49.418;11.038;2022-12-18T00:48:17;-8.00;37.80
30865;DHT22;17574;49.418;11.038;2022-12-18T00:50:44;-8.00;38.60
30865;DHT22;17574;49.418;11.038;2022-12-18T00:53:11;-8.00;39.10
30865;DHT22;17574;49.418;11.038;2022-12-18T00:55:38;-8.00;40.30
30865;DHT22;17574;49.418;11.038;2022-12-18T00:58:05;-8.00;41.20
30865;DHT22;17574;49.418;11.038;2022-12-18T01:00:32;-8.00;41.80
30865;DHT22;17574;49.418;11.038;2022-12-18T01:02:58;-8.00;43.20
30865;DHT22;17574;49.418;11.038;2022-12-18T01:05:25;-7.90;44.80
30865;DHT22;17574;49.418;11.038;2022-12-18T01:07:52;-8.00;47.90
30865;DHT22;17574;49.418;11.038;2022-12-18T01:10:19;-7.90;52.50
30865;DHT22;17574;49.418;11.038;2022-12-18T01:12:45;-7.90;54.80
30865;DHT22;17574;49.418;11.038;2022-12-18T01:15:12;-7.80;55.60
30865;DHT22;17574;49.418;11.038;2022-12-18T01:17:39;-7.80;58.60
30865;DHT22;17574;49.418;11.038;2022-12-18T01:20:06;-7.80;60.30
30865;DHT22;17574;49.418;11.038;2022-12-18T01:22:32;-7.70;63.90
30865;DHT22;17574;49.418;11.038;2022-12-18T01:24:59;-7.70;64.10
30865;DHT22;17574;49.418;11.038;2022-12-18T01:27:25;-7.60;66.00
30865;DHT22;17574;49.418;11.038;2022-12-18T01:29:52;-7.50;67.20
30865;DHT22;17574;49.418;11.038;2022-12-18T01:32:19;-7.50;68.40
30865;DHT22;17574;49.418;11.038;2022-12-18T01:34:45;-7.50;69.30
30865;DHT22;17574;49.418;11.038;2022-12-18T01:37:12;-7.50;70.80
30865;DHT22;17574;49.418;11.038;2022-12-18T01:39:39;-7.50;72.40
30865;DHT22;17574;49.418;11.038;2022-12-18T01:42:12;-7.50;72.50
30865;DHT22;17574;49.418;11.038;2022-12-18T01:44:56;-7.50;74.70
30865;DHT22;17574;49.418;11.038;2022-12-18T01:47:27;-7.50;76.20
30865;DHT22;17574;49.418;11.038;2022-12-18T01:49:55;-7.50;76.40
30865;DHT22;17574;49.418;11.038;2022-12-18T01:52:22;-7.40;76.50
30865;DHT22;17574;49.418;11.038;2022-12-18T01:54:50;-7.40;76.50
30865;DHT22;17574;49.418;11.038;2022-12-18T01:57:18;-7.40;76.50
30865;DHT22;17574;49.418;11.038;2022-12-18T01:59:45;-7.40;76.50
30865;DHT22;17574;49.418;11.038;2022-12-18T02:02:14;-7.30;77.20
30865;DHT22;17574;49.418;11.038;2022-12-18T02:04:42;-7.30;77.00
30865;DHT22;17574;49.418;11.038;2022-12-18T02:09:52;-7.20;77.90
30865;DHT22;17574;49.418;11.038;2022-12-18T02:12:22;-7.10;77.80
30865;DHT22;17574;49.418;11.038;2022-12-18T02:14:51;-7.10;78.20
30865;DHT22;17574;49.418;11.038;2022-12-18T02:17:20;-7.00;78.50
30865;DHT22;17574;49.418;11.038;2022-12-18T02:19:54;-6.90;78.70
30865;DHT22;17574;49.418;11.038;2022-12-18T02:25:14;-6.80;79.70
30865;DHT22;17574;49.418;11.038;2022-12-18T02:27:45;-6.70;80.80
30865;DHT22;17574;49.418;11.038;2022-12-18T02:30:12;-6.60;81.10
30865;DHT22;17574;49.418;11.038;2022-12-18T02:32:40;-6.60;81.00
30865;DHT22;17574;49.418;11.038;2022-12-18T02:35:09;-6.60;81.10
30865;DHT22;17574;49.418;11.038;2022-12-18T02:37:37;-6.50;81.10
30865;DHT22;17574;49.418;11.038;2022-12-18T02:40:05;-6.40;81.40
30865;DHT22;17574;49.418;11.038;2022-12-18T02:42:32;-6.30;83.30
30865;DHT22;17574;49.418;11.038;2022-12-18T02:44:59;-6.30;84.50
30865;DHT22;17574;49.418;11.038;2022-12-18T02:47:27;-6.20;85.20
30865;DHT22;17574;49.418;11.038;2022-12-18T03:00:41;-6.00;85.40
30865;DHT22;17574;49.418;11.038;2022-12-18T03:03:17;-6.00;85.40
30865;DHT22;17574;49.418;11.038;2022-12-18T03:05:47;-5.80;85.50
30865;DHT22;17574;49.418;11.038;2022-12-18T03:08:16;-5.90;84.60
30865;DHT22;17574;49.418;11.038;2022-12-18T03:10:45;-5.80;84.00
30865;DHT22;17574;49.418;11.038;2022-12-18T03:13:17;-5.80;82.80
30865;DHT22;17574;49.418;11.038;2022-12-18T03:15:47;-5.80;81.80
30865;DHT22;17574;49.418;11.038;2022-12-18T03:18:22;-5.80;81.70
30865;DHT22;17574;49.418;11.038;2022-12-18T03:20:51;-5.70;81.70
30865;DHT22;17574;49.418;11.038;2022-12-18T03:23:20;-5.70;80.70
30865;DHT22;17574;49.418;11.038;2022-12-18T03:25:52;-5.70;78.70
30865;DHT22;17574;49.418;11.038;2022-12-18T03:28:21;-5.70;77.80
30865;DHT22;17574;49.418;11.038;2022-12-18T03:30:49;-5.60;77.50
30865;DHT22;17574;49.418;11.038;2022-12-18T03:33:18;-5.60;76.10
30865;DHT22;17574;49.418;11.038;2022-12-18T03:35:48;-5.50;76.40
30865;DHT22;17574;49.418;11.038;2022-12-18T03:38:14;-5.50;75.90
30865;DHT22;17574;49.418;11.038;2022-12-18T03:40:53;-5.50;75.50
30865;DHT22;17574;49.418;11.038;2022-12-18T03:43:32;-5.50;74.70
30865;DHT22;17574;49.418;11.038;2022-12-18T03:46:03;-5.50;74.80
30865;DHT22;17574;49.418;11.038;2022-12-18T03:48:49;-5.20;74.30
30865;DHT22;17574;49.418;11.038;2022-12-18T03:51:28;-5.40;74.10
30865;DHT22;17574;49.418;11.038;2022-12-18T03:54:01;-5.40;74.10
30865;DHT22;17574;49.418;11.038;2022-12-18T03:56:34;-5.30;74.20
30865;DHT22;17574;49.418;11.038;2022-12-18T03:59:02;-5.30;73.20
30865;DHT22;17574;49.418;11.038;2022-12-18T04:01:30;-5.30;73.10
30865;DHT22;17574;49.418;11.038;2022-12-18T04:03:59;-5.20;73.10
30865;DHT22;17574;49.418;11.038;2022-12-18T04:06:26;-5.20;72.60
30865;DHT22;17574;49.418;11.038;2022-12-18T04:08:54;-5.20;71.50
30865;DHT22;17574;49.418;11.038;2022-12-18T04:11:20;-5.20;71.50
30865;DHT22;17574;49.418;11.038;2022-12-18T04:13:47;-5.20;71.40
30865;DHT22;17574;49.418;11.038;2022-12-18T04:16:13;-5.20;71.10
30865;DHT22;17574;49.418;11.038;2022-12-18T04:18:40;-5.20;70.90
30865;DHT22;17574;49.418;11.038;2022-12-18T04:21:07;-5.20;70.40
30865;DHT22;17574;49.418;11.038;2022-12-18T04:23:34;-5.20;70.20
30865;DHT22;17574;49.418;11.038;2022-12-18T04:26:00;-5.10;70.30
30865;DHT22;17574;49.418;11.038;2022-12-18T04:28:27;-5.10;70.30
30865;DHT22;17574;49.418;11.038;2022-12-18T04:30:53;-5.00;70.40
30865;DHT22;17574;49.418;11.038;2022-12-18T04:33:20;-5.00;70.40
30865;DHT22;17574;49.418;11.038;2022-12-18T04:35:46;-4.90;70.40
30865;DHT22;17574;49.418;11.038;2022-12-18T04:38:13;-4.90;69.40
30865;DHT22;17574;49.418;11.038;2022-12-18T04:40:40;-4.80;69.60
30865;DHT22;17574;49.418;11.038;2022-12-18T04:43:07;-4.80;68.20
30865;DHT22;17574;49.418;11.038;2022-12-18T04:45:33;-4.80;68.30
30865;DHT22;17574;49.418;11.038;2022-12-18T04:48:01;-4.70;68.90
30865;DHT22;17574;49.418;11.038;2022-12-18T04:50:27;-4.80;69.00
30865;DHT22;17574;49.418;11.038;2022-12-18T04:52:54;-4.80;69.40
30865;DHT22;17574;49.418;11.038;2022-12-18T04:55:21;-4.70;68.30
30865;DHT22;17574;49.418;11.038;2022-12-18T04:57:50;-4.70;67.30
30865;DHT22;17574;49.418;11.038;2022-12-18T05:00:17;-4.70;67.70
30865;DHT22;17574;49.418;11.038;2022-12-18T05:02:43;-4.70;67.90
30865;DHT22;17574;49.418;11.038;2022-12-18T05:05:10;-4.70;66.50
30865;DHT22;17574;49.418;11.038;2022-12-18T05:07:37;-4.60;66.60
30865;DHT22;17574;49.418;11.038;2022-12-18T05:10:03;-4.60;66.60
30865;DHT22;17574;49.418;11.038;2022-12-18T05:12:31;-4.60;66.60
30865;DHT22;17574;49.418;11.038;2022-12-18T05:14:58;-4.60;66.60
30865;DHT22;17574;49.418;11.038;2022-12-18T05:17:24;-4.60;66.60
30865;DHT22;17574;49.418;11.038;2022-12-18T05:19:51;-4.50;66.70
30865;DHT22;17574;49.418;11.038;2022-12-18T05:22:17;-4.30;66.90
30865;DHT22;17574;49.418;11.038;2022-12-18T05:24:44;-4.40;66.70
30865;DHT22;17574;49.418;11.038;2022-12-18T05:27:10;-4.50;66.70
30865;DHT22;17574;49.418;11.038;2022-12-18T05:29:37;-5.30;66.00
30865;DHT22;17574;49.418;11.038;2022-12-18T05:32:04;-3.90;67.20
30865;DHT22;17574;49.418;11.038;2022-12-18T05:34:30;-4.40;66.90
30865;DHT22;17574;49.418;11.038;2022-12-18T05:36:58;-4.40;68.20
30865;DHT22;17574;49.418;11.038;2022-12-18T05:39:24;-4.40;68.10
30865;DHT22;17574;49.418;11.038;2022-12-18T05:41:51;-4.40;68.80
30865;DHT22;17574;49.418;11.038;2022-12-18T05:44:17;-4.40;68.60
30865;DHT22;17574;49.418;11.038;2022-12-18T05:46:44;-4.30;69.40
30865;DHT22;17574;49.418;11.038;2022-12-18T05:49:10;-4.30;69.90
30865;DHT22;17574;49.418;11.038;2022-12-18T05:51:37;-4.30;70.20
30865;DHT22;17574;49.418;11.038;2022-12-18T05:54:04;-4.20;71.00
30865;DHT22;17574;49.418;11.038;2022-12-18T05:56:31;-4.20;71.00
30865;DHT22;17574;49.418;11.038;2022-12-18T05:58:58;-4.20;71.00
30865;DHT22;17574;49.418;11.038;2022-12-18T06:01:25;-4.20;72.00
30865;DHT22;17574;49.418;11.038;2022-12-18T06:03:53;-4.10;72.80
30865;DHT22;17574;49.418;11.038;2022-12-18T06:06:20;-4.10;72.70
30865;DHT22;17574;49.418;11.038;2022-12-18T06:08:48;-4.00;72.90
30865;DHT22;17574;49.418;11.038;2022-12-18T06:11:16;-4.00;73.20
30865;DHT22;17574;49.418;11.038;2022-12-18T06:13:43;-4.00;73.30
30865;DHT22;17574;49.418;11.038;2022-12-18T06:16:10;-3.90;73.60
30865;DHT22;17574;49.418;11.038;2022-12-18T06:18:37;-3.90;73.30
30865;DHT22;17574;49.418;11.038;2022-12-18T06:21:03;-3.90;73.30
30865;DHT22;17574;49.418;11.038;2022-12-18T06:23:30;-3.80;74.20
30865;DHT22;17574;49.418;11.038;2022-12-18T06:25:56;-3.90;73.50
30865;DHT22;17574;49.418;11.038;2022-12-18T06:28:23;-3.80;73.80
30865;DHT22;17574;49.418;11.038;2022-12-18T06:30:50;-3.80;73.90
30865;DHT22;17574;49.418;11.038;2022-12-18T06:33:16;-3.80;74.10
30865;DHT22;17574;49.418;11.038;2022-12-18T06:35:43;-3.80;73.60
30865;DHT22;17574;49.418;11.038;2022-12-18T06:38:10;-3.80;74.10
30865;DHT22;17574;49.418;11.038;2022-12-18T06:40:37;-3.70;74.30
30865;DHT22;17574;49.418;11.038;2022-12-18T06:43:04;-3.60;74.10
30865;DHT22;17574;49.418;11.038;2022-12-18T06:45:31;-3.60;73.80
30865;DHT22;17574;49.418;11.038;2022-12-18T06:47:58;-3.60;73.40
30865;DHT22;17574;49.418;11.038;2022-12-18T06:50:25;-3.50;73.80
30865;DHT22;17574;49.418;11.038;2022-12-18T06:52:51;-3.50;72.70
30865;DHT22;17574;49.418;11.038;2022-12-18T06:55:18;-3.50;73.60
30865;DHT22;17574;49.418;11.038;2022-12-18T06:57:44;-3.40;74.20
30865;DHT22;17574;49.418;11.038;2022-12-18T07:00:11;-3.40;74.40
30865;DHT22;17574;49.418;11.038;2022-12-18T07:02:38;-3.40;75.70
30865;DHT22;17574;49.418;11.038;2022-12-18T07:05:04;-3.30;75.80
30865;DHT22;17574;49.418;11.038;2022-12-18T07:07:36;-3.30;75.80
30865;DHT22;17574;49.418;11.038;2022-12-18T07:10:02;-3.30;76.00
30865;DHT22;17574;49.418;11.038;2022-12-18T07:12:29;-3.20;77.10
30865;DHT22;17574;49.418;11.038;2022-12-18T07:14:56;-3.00;77.70
30865;DHT22;17574;49.418;11.038;2022-12-18T07:17:22;-3.10;77.60
30865;DHT22;17574;49.418;11.038;2022-12-18T07:19:49;-3.10;77.50
30865;DHT22;17574;49.418;11.038;2022-12-18T07:22:15;-3.10;77.10
30865;DHT22;17574;49.418;11.038;2022-12-18T07:24:42;-3.00;76.00
30865;DHT22;17574;49.418;11.038;2022-12-18T07:27:08;-3.10;76.90
30865;DHT22;17574;49.418;11.038;2022-12-18T07:29:35;-3.10;77.70
30865;DHT22;17574;49.418;11.038;2022-12-18T07:32:03;-3.10;78.10
30865;DHT22;17574;49.418;11.038;2022-12-18T07:34:30;-3.00;78.00
30865;DHT22;17574;49.418;11.038;2022-12-18T07:36:56;-3.00;78.10
30865;DHT22;17574;49.418;11.038;2022-12-18T07:39:23;-3.00;76.10
30865;DHT22;17574;49.418;11.038;2022-12-18T07:41:50;-3.00;76.00
30865;DHT22;17574;49.418;11.038;2022-12-18T07:44:35;-3.00;76.00
30865;DHT22;17574;49.418;11.038;2022-12-18T07:47:02;-3.00;75.80
30865;DHT22;17574;49.418;11.038;2022-12-18T07:49:35;-3.10;75.90
30865;DHT22;17574;49.418;11.038;2022-12-18T07:52:03;-2.60;76.40
30865;DHT22;17574;49.418;11.038;2022-12-18T07:54:29;-3.10;76.00
30865;DHT22;17574;49.418;11.038;2022-12-18T07:56:56;-3.00;76.10
30865;DHT22;17574;49.418;11.038;2022-12-18T07:59:22;-3.00;76.00
30865;DHT22;17574;49.418;11.038;2022-12-18T08:01:49;-3.00;76.00
30865;DHT22;17574;49.418;11.038;2022-12-18T08:04:16;-3.00;76.10
30865;DHT22;17574;49.418;11.038;2022-12-18T08:06:42;-3.00;77.10
30865;DHT22;17574;49.418;11.038;2022-12-18T08:09:13;-2.90;77.90
30865;DHT22;17574;49.418;11.038;2022-12-18T08:11:40;-2.90;77.50
30865;DHT22;17574;49.418;11.038;2022-12-18T08:14:07;-2.80;78.20
30865;DHT22;17574;49.418;11.038;2022-12-18T08:16:33;-2.80;77.40
30865;DHT22;17574;49.418;11.038;2022-12-18T08:19:00;-2.80;76.20
30865;DHT22;17574;49.418;11.038;2022-12-18T08:21:27;-2.70;76.80
30865;DHT22;17574;49.418;11.038;2022-12-18T08:23:55;-2.70;76.30
30865;DHT22;17574;49.418;11.038;2022-12-18T08:26:22;-2.60;76.30
30865;DHT22;17574;49.418;11.038;2022-12-18T08:28:49;-2.70;76.30
30865;DHT22;17574;49.418;11.038;2022-12-18T08:31:16;-2.70;76.30
30865;DHT22;17574;49.418;11.038;2022-12-18T08:33:44;-2.70;74.90
30865;DHT22;17574;49.418;11.038;2022-12-18T08:36:10;-2.70;75.60
30865;DHT22;17574;49.418;11.038;2022-12-18T08:38:37;-2.60;76.30
30865;DHT22;17574;49.418;11.038;2022-12-18T08:41:08;-2.60;76.30
30865;DHT22;17574;49.418;11.038;2022-12-18T08:43:35;-2.20;76.60
30865;DHT22;17574;49.418;11.038;2022-12-18T08:46:21;-2.50;75.90
30865;DHT22;17574;49.418;11.038;2022-12-18T08:48:49;-2.50;75.20
30865;DHT22;17574;49.418;11.038;2022-12-18T08:51:16;-2.40;75.00
30865;DHT22;17574;49.418;11.038;2022-12-18T08:53:43;-2.40;75.10
30865;DHT22;17574;49.418;11.038;2022-12-18T08:56:11;-2.40;74.30
30865;DHT22;17574;49.418;11.038;2022-12-18T08:58:37;-2.40;72.90
30865;DHT22;17574;49.418;11.038;2022-12-18T09:01:05;-2.40;72.50
30865;DHT22;17574;49.418;11.038;2022-12-18T09:03:32;-2.40;71.80
30865;DHT22;17574;49.418;11.038;2022-12-18T09:05:59;-2.40;72.40
30865;DHT22;17574;49.418;11.038;2022-12-18T09:08:26;-2.40;72.40
30865;DHT22;17574;49.418;11.038;2022-12-18T09:10:53;-2.30;72.50
30865;DHT22;17574;49.418;11.038;2022-12-18T09:13:19;-2.40;72.40
30865;DHT22;17574;49.418;11.038;2022-12-18T09:15:53;-2.30;72.60
30865;DHT22;17574;49.418;11.038;2022-12-18T09:18:20;-2.30;71.00
30865;DHT22;17574;49.418;11.038;2022-12-18T09:20:47;-2.30;71.30
30865;DHT22;17574;49.418;11.038;2022-12-18T09:23:13;-2.30;72.60
30865;DHT22;17574;49.418;11.038;2022-12-18T09:25:41;-2.20;72.60
30865;DHT22;17574;49.418;11.038;2022-12-18T09:28:11;-2.10;72.80
30865;DHT22;17574;49.418;11.038;2022-12-18T09:30:39;-2.20;72.20
30865;DHT22;17574;49.418;11.038;2022-12-18T09:33:05;-2.10;72.30
30865;DHT22;17574;49.418;11.038;2022-12-18T09:35:35;-2.10;71.70
30865;DHT22;17574;49.418;11.038;2022-12-18T09:38:02;-2.00;71.60
30865;DHT22;17574;49.418;11.038;2022-12-18T09:40:28;-2.00;72.00
30865;DHT22;17574;49.418;11.038;2022-12-18T09:42:59;-1.90;71.60
30865;DHT22;17574;49.418;11.038;2022-12-18T09:45:27;-1.80;73.80
30865;DHT22;17574;49.418;11.038;2022-12-18T09:47:56;-1.70;75.30
30865;DHT22;17574;49.418;11.038;2022-12-18T09:50:33;-2.10;72.70
30865;DHT22;17574;49.418;11.038;2022-12-18T09:53:20;-1.60;70.40
30865;DHT22;17574;49.418;11.038;2022-12-18T09:55:49;-2.00;66.30
30865;DHT22;17574;49.418;11.038;2022-12-18T09:58:22;-1.70;62.40
30865;DHT22;17574;49.418;11.038;2022-12-18T10:00:52;-1.70;60.40
30865;DHT22;17574;49.418;11.038;2022-12-18T10:03:19;-1.90;55.40
30865;DHT22;17574;49.418;11.038;2022-12-18T10:10:51;-1.90;55.40
30865;DHT22;17574;49.418;11.038;2022-12-18T10:13:30;-1.90;53.70
30865;DHT22;17574;49.418;11.038;2022-12-18T10:18:42;-1.80;55.50
30865;DHT22;17574;49.418;11.038;2022-12-18T10:21:15;-1.70;55.10
30865;DHT22;17574;49.418;11.038;2022-12-18T10:26:14;-1.80;51.00
30865;DHT22;17574;49.418;11.038;2022-12-18T10:28:41;-1.80;52.10
30865;DHT22;17574;49.418;11.038;2022-12-18T10:31:19;-1.70;50.50
30865;DHT22;17574;49.418;11.038;2022-12-18T10:33:50;-1.70;50.40
30865;DHT22;17574;49.418;11.038;2022-12-18T10:36:16;-1.60;49.20
30865;DHT22;17574;49.418;11.038;2022-12-18T10:38:43;-1.50;46.90
30865;DHT22;17574;49.418;11.038;2022-12-18T10:43:48;-1.40;43.40
30865;DHT22;17574;49.418;11.038;2022-12-18T10:46:18;-1.30;76.90
30865;DHT22;17574;49.418;11.038;2022-12-18T10:51:29;3.30;57.00
30865;DHT22;17574;49.418;11.038;2022-12-18T10:54:01;4.20;28.20
30865;DHT22;17574;49.418;11.038;2022-12-18T10:56:30;3.10;3.20
30865;DHT22;17574;49.418;11.038;2022-12-18T10:59:01;1.20;13.80
30865;DHT22;17574;49.418;11.038;2022-12-18T11:01:45;0.30;19.70
30865;DHT22;17574;49.418;11.038;2022-12-18T11:04:16;0.00;21.90
30865;DHT22;17574;49.418;11.038;2022-12-18T11:06:52;-0.50;26.90
30865;DHT22;17574;49.418;11.038;2022-12-18T11:09:20;-0.80;30.00
30865;DHT22;17574;49.418;11.038;2022-12-18T11:11:50;-1.00;31.50
30865;DHT22;17574;49.418;11.038;2022-12-18T11:14:29;-1.10;33.70
30865;DHT22;17574;49.418;11.038;2022-12-18T11:16:57;-1.10;35.60
30865;DHT22;17574;49.418;11.038;2022-12-18T11:19:44;-1.10;35.50
30865;DHT22;17574;49.418;11.038;2022-12-18T11:22:18;-1.10;36.10
30865;DHT22;17574;49.418;11.038;2022-12-18T11:24:52;-1.10;38.50
30865;DHT22;17574;49.418;11.038;2022-12-18T11:27:39;-1.20;38.10
30865;DHT22;17574;49.418;11.038;2022-12-18T11:30:10;-1.10;40.50
30865;DHT22;17574;49.418;11.038;2022-12-18T11:32:44;-1.00;39.50
30865;DHT22;17574;49.418;11.038;2022-12-18T11:35:15;-1.00;37.00
30865;DHT22;17574;49.418;11.038;2022-12-18T11:37:47;-0.90;36.90
30865;DHT22;17574;49.418;11.038;2022-12-18T11:40:16;-0.90;36.60
30865;DHT22;17574;49.418;11.038;2022-12-18T11:45:25;-1.00;37.60
30865;DHT22;17574;49.418;11.038;2022-12-18T11:53:11;-0.80;40.10
30865;DHT22;17574;49.418;11.038;2022-12-18T12:00:44;-0.90;38.50
30865;DHT22;17574;49.418;11.038;2022-12-18T12:11:07;-0.90;37.90
30865;DHT22;17574;49.418;11.038;2022-12-18T12:21:43;-0.80;37.40
30865;DHT22;17574;49.418;11.038;2022-12-18T12:26:42;-0.70;37.40
30865;DHT22;17574;49.418;11.038;2022-12-18T12:29:23;-0.60;36.20
30865;DHT22;17574;49.418;11.038;2022-12-18T12:32:04;-0.50;35.10
30865;DHT22;17574;49.418;11.038;2022-12-18T12:37:12;-0.60;33.70
30865;DHT22;17574;49.418;11.038;2022-12-18T12:39:41;-0.50;33.20
30865;DHT22;17574;49.418;11.038;2022-12-18T12:42:31;-0.50;34.10
30865;DHT22;17574;49.418;11.038;2022-12-18T12:45:28;-0.50;32.50
30865;DHT22;17574;49.418;11.038;2022-12-18T12:47:55;-0.60;33.90
30865;DHT22;17574;49.418;11.038;2022-12-18T12:50:24;-0.70;35.10
30865;DHT22;17574;49.418;11.038;2022-12-18T12:52:53;-0.70;36.20
30865;DHT22;17574;49.418;11.038;2022-12-18T12:55:25;-0.70;36.90
30865;DHT22;17574;49.418;11.038;2022-12-18T12:57:58;-0.70;35.90
30865;DHT22;17574;49.418;11.038;2022-12-18T13:00:26;-0.70;37.20
30865;DHT22;17574;49.418;11.038;2022-12-18T13:02:59;-0.60;37.40
30865;DHT22;17574;49.418;11.038;2022-12-18T13:08:07;-0.60;37.90
30865;DHT22;17574;49.418;11.038;2022-12-18T13:10:35;-0.50;36.60
30865;DHT22;17574;49.418;11.038;2022-12-18T13:15:36;-0.40;34.90
30865;DHT22;17574;49.418;11.038;2022-12-18T13:25:50;-0.30;33.20
30865;DHT22;17574;49.418;11.038;2022-12-18T13:28:21;-0.30;33.90
30865;DHT22;17574;49.418;11.038;2022-12-18T13:30:52;-0.30;35.40
30865;DHT22;17574;49.418;11.038;2022-12-18T13:41:34;-0.20;33.50
30865;DHT22;17574;49.418;11.038;2022-12-18T13:44:11;-0.30;35.20
30865;DHT22;17574;49.418;11.038;2022-12-18T13:46:42;-0.20;36.00
30865;DHT22;17574;49.418;11.038;2022-12-18T13:51:42;-0.20;35.60
30865;DHT22;17574;49.418;11.038;2022-12-18T13:56:44;-0.20;35.20
30865;DHT22;17574;49.418;11.038;2022-12-18T13:59:13;-0.20;34.40
30865;DHT22;17574;49.418;11.038;2022-12-18T14:01:45;-0.10;33.70
30865;DHT22;17574;49.418;11.038;2022-12-18T14:04:20;-0.20;34.20
30865;DHT22;17574;49.418;11.038;2022-12-18T14:06:47;-0.30;34.00
30865;DHT22;17574;49.418;11.038;2022-12-18T14:09:17;-0.30;34.90
30865;DHT22;17574;49.418;11.038;2022-12-18T14:11:47;-0.60;36.80
30865;DHT22;17574;49.418;11.038;2022-12-18T14:14:15;-0.70;38.50
30865;DHT22;17574;49.418;11.038;2022-12-18T14:16:42;-0.70;40.80
30865;DHT22;17574;49.418;11.038;2022-12-18T14:19:14;-0.70;40.90
30865;DHT22;17574;49.418;11.038;2022-12-18T14:21:48;-0.80;40.30
30865;DHT22;17574;49.418;11.038;2022-12-18T14:26:45;-1.00;40.70
30865;DHT22;17574;49.418;11.038;2022-12-18T14:29:21;-1.00;42.40
30865;DHT22;17574;49.418;11.038;2022-12-18T14:34:40;-1.00;41.90
30865;DHT22;17574;49.418;11.038;2022-12-18T14:37:10;-1.10;43.20
30865;DHT22;17574;49.418;11.038;2022-12-18T14:39:36;-1.00;44.50
30865;DHT22;17574;49.418;11.038;2022-12-18T14:42:03;-1.20;45.80
30865;DHT22;17574;49.418;11.038;2022-12-18T14:44:29;-1.20;45.90
30865;DHT22;17574;49.418;11.038;2022-12-18T14:47:16;-1.20;46.20
30865;DHT22;17574;49.418;11.038;2022-12-18T14:49:43;-1.20;46.80
30865;DHT22;17574;49.418;11.038;2022-12-18T14:52:19;-1.30;46.60
30865;DHT22;17574;49.418;11.038;2022-12-18T14:54:48;-1.30;46.50
30865;DHT22;17574;49.418;11.038;2022-12-18T14:57:22;-1.30;47.00
30865;DHT22;17574;49.418;11.038;2022-12-18T14:59:49;-1.40;47.70
30865;DHT22;17574;49.418;11.038;2022-12-18T15:02:23;-1.40;48.10
30865;DHT22;17574;49.418;11.038;2022-12-18T15:05:01;-1.50;49.40
30865;DHT22;17574;49.418;11.038;2022-12-18T15:07:38;-1.60;50.50
30865;DHT22;17574;49.418;11.038;2022-12-18T15:12:45;-1.60;50.60
30865;DHT22;17574;49.418;11.038;2022-12-18T15:17:58;-1.70;50.40
30865;DHT22;17574;49.418;11.038;2022-12-18T15:20:25;-1.70;51.90
30865;DHT22;17574;49.418;11.038;2022-12-18T15:22:52;-1.70;52.00
30865;DHT22;17574;49.418;11.038;2022-12-18T15:25:31;-1.70;52.20
30865;DHT22;17574;49.418;11.038;2022-12-18T15:27:59;-1.80;53.20
30865;DHT22;17574;49.418;11.038;2022-12-18T15:30:26;-1.90;53.80
30865;DHT22;17574;49.418;11.038;2022-12-18T15:32:55;-1.80;54.70
30865;DHT22;17574;49.418;11.038;2022-12-18T15:35:39;-1.80;54.90
30865;DHT22;17574;49.418;11.038;2022-12-18T15:38:12;-1.80;55.10
30865;DHT22;17574;49.418;11.038;2022-12-18T15:40:38;-1.90;54.40
30865;DHT22;17574;49.418;11.038;2022-12-18T15:43:07;-1.90;54.90
30865;DHT22;17574;49.418;11.038;2022-12-18T15:45:53;-1.90;54.60
30865;DHT22;17574;49.418;11.038;2022-12-18T15:48:20;-2.00;55.30
30865;DHT22;17574;49.418;11.038;2022-12-18T15:50:48;-2.00;55.30
30865;DHT22;17574;49.418;11.038;2022-12-18T15:53:15;-2.00;55.30
30865;DHT22;17574;49.418;11.038;2022-12-18T15:55:41;-2.10;55.20
30865;DHT22;17574;49.418;11.038;2022-12-18T15:58:26;-1.90;55.40
30865;DHT22;17574;49.418;11.038;2022-12-18T16:00:53;-2.10;56.40
30865;DHT22;17574;49.418;11.038;2022-12-18T16:03:20;-2.20;57.40
30865;DHT22;17574;49.418;11.038;2022-12-18T16:05:48;-2.20;57.80
30865;DHT22;17574;49.418;11.038;2022-12-18T16:08:15;-2.20;57.40
30865;DHT22;17574;49.418;11.038;2022-12-18T16:10:42;-2.20;57.70
30865;DHT22;17574;49.418;11.038;2022-12-18T16:13:12;-2.20;57.50
30865;DHT22;17574;49.418;11.038;2022-12-18T16:15:40;-2.20;57.30
30865;DHT22;17574;49.418;11.038;2022-12-18T16:18:07;-2.20;57.80
30865;DHT22;17574;49.418;11.038;2022-12-18T16:20:33;-2.30;58.10
30865;DHT22;17574;49.418;11.038;2022-12-18T16:23:00;-2.30;58.70
30865;DHT22;17574;49.418;11.038;2022-12-18T16:25:27;-2.30;57.90
30865;DHT22;17574;49.418;11.038;2022-12-18T16:27:54;-2.30;59.00
30865;DHT22;17574;49.418;11.038;2022-12-18T16:30:22;-2.40;59.90
30865;DHT22;17574;49.418;11.038;2022-12-18T16:32:49;-2.40;59.90
30865;DHT22;17574;49.418;11.038;2022-12-18T16:35:16;-2.40;59.90
30865;DHT22;17574;49.418;11.038;2022-12-18T16:37:43;-2.40;59.90
30865;DHT22;17574;49.418;11.038;2022-12-18T16:40:11;-2.50;59.80
30865;DHT22;17574;49.418;11.038;2022-12-18T16:42:38;-2.60;59.70
30865;DHT22;17574;49.418;11.038;2022-12-18T16:45:06;-2.60;61.00
30865;DHT22;17574;49.418;11.038;2022-12-18T16:47:33;-2.70;61.10
30865;DHT22;17574;49.418;11.038;2022-12-18T16:49:59;-2.60;61.90
30865;DHT22;17574;49.418;11.038;2022-12-18T16:52:26;-2.70;62.30
30865;DHT22;17574;49.418;11.038;2022-12-18T16:54:53;-2.70;62.90
30865;DHT22;17574;49.418;11.038;2022-12-18T16:57:20;-2.70;63.10
30865;DHT22;17574;49.418;11.038;2022-12-18T16:59:51;-2.70;63.90
30865;DHT22;17574;49.418;11.038;2022-12-18T17:02:18;-2.70;63.90
30865;DHT22;17574;49.418;11.038;2022-12-18T17:04:49;-2.80;64.70
30865;DHT22;17574;49.418;11.038;2022-12-18T17:07:15;-2.80;64.30
30865;DHT22;17574;49.418;11.038;2022-12-18T17:09:42;-2.80;64.70
30865;DHT22;17574;49.418;11.038;2022-12-18T17:12:09;-2.80;65.40
30865;DHT22;17574;49.418;11.038;2022-12-18T17:14:35;-2.80;65.80